createdAt,value
2023-01-24T00:00:59.701Z,4.18
2023-01-24T00:04:02.536Z,4.50
2023-01-24T00:07:05.926Z,4.87
2023-01-24T00:10:12.159Z,4.53
2023-01-24T00:13:18.154Z,4.40
2023-01-24T00:16:22.552Z,4.47
2023-01-24T00:19:25.355Z,4.60
2023-01-24T00:22:28.533Z,4.97
2023-01-24T00:25:31.271Z,4.72
2023-01-24T00:28:34.887Z,4.55
2023-01-24T00:31:46.991Z,4.43
2023-01-24T00:34:49.851Z,4.10
2023-01-24T00:37:52.608Z,4.63
2023-01-24T00:40:55.596Z,4.55
2023-01-24T00:43:58.421Z,4.32
2023-01-24T00:47:01.236Z,4.43
2023-01-24T00:50:05.164Z,4.47
2023-01-24T00:53:08.779Z,4.20
2023-01-24T00:56:11.578Z,4.32
2023-01-24T00:59:15.601Z,4.60
2023-01-24T01:02:19.609Z,4.63
2023-01-24T01:05:23.259Z,4.70
2023-01-24T01:08:26.748Z,5.07
2023-01-24T01:11:32.776Z,4.50
2023-01-24T01:14:35.679Z,4.05
2023-01-24T01:17:39.831Z,4.63
2023-01-24T01:20:43.300Z,4.47
2023-01-24T01:23:46.845Z,4.07
2023-01-24T01:26:49.571Z,4.13
2023-01-24T01:29:52.386Z,4.22
2023-01-24T01:32:55.946Z,3.88
2023-01-24T01:35:59.032Z,4.40
2023-01-24T01:39:02.022Z,4.70
2023-01-24T01:42:05.022Z,3.85
2023-01-24T01:45:34.997Z,3.88
2023-01-24T01:48:41.982Z,4.00
2023-01-24T01:51:50.422Z,4.00
2023-01-24T01:55:00.379Z,4.07
2023-01-24T01:58:03.610Z,3.80
2023-01-24T02:01:08.547Z,3.83
2023-01-24T02:04:19.543Z,4.38
2023-01-24T02:07:52.518Z,4.63
2023-01-24T02:11:15.679Z,3.53
2023-01-24T02:14:39.106Z,4.47
2023-01-24T02:17:42.546Z,4.22
2023-01-24T02:20:47.404Z,4.05
2023-01-24T02:24:05.058Z,5.77
2023-01-24T02:27:07.966Z,4.17
2023-01-24T02:30:12.004Z,3.92
2023-01-24T02:33:18.736Z,4.03
2023-01-24T02:36:23.189Z,4.00
2023-01-24T02:39:36.457Z,4.10
2023-01-24T02:42:40.285Z,4.57
2023-01-24T02:45:57.511Z,3.88
2023-01-24T02:49:00.369Z,4.10
2023-01-24T02:52:26.425Z,3.50
2023-01-24T02:55:29.490Z,4.17
2023-01-24T02:58:32.322Z,3.53
2023-01-24T03:01:35.506Z,4.10
2023-01-24T03:04:38.512Z,3.45
2023-01-24T03:07:44.352Z,4.05
2023-01-24T03:10:50.465Z,4.00
2023-01-24T03:14:12.763Z,4.40
2023-01-24T03:17:34.535Z,4.05
2023-01-24T03:20:55.768Z,3.85
2023-01-24T03:24:17.363Z,3.83
2023-01-24T03:27:39.358Z,4.17
2023-01-24T03:31:07.304Z,4.10
2023-01-24T03:34:33.039Z,3.70
2023-01-24T03:37:54.994Z,3.30
2023-01-24T03:40:59.477Z,3.80
2023-01-24T03:44:02.318Z,3.90
2023-01-24T03:47:07.072Z,3.47
2023-01-24T03:50:29.583Z,3.97
2023-01-24T03:53:32.750Z,3.40
2023-01-24T03:56:35.685Z,3.42
2023-01-24T03:59:42.162Z,4.03
2023-01-24T04:02:45.237Z,3.30
2023-01-24T04:05:52.461Z,3.67
2023-01-24T04:08:55.540Z,3.45
2023-01-24T04:12:00.821Z,3.75
2023-01-24T04:15:07.436Z,4.07
2023-01-24T04:18:10.674Z,3.30
2023-01-24T04:21:13.721Z,3.95
2023-01-24T04:24:16.650Z,4.05
2023-01-24T04:27:21.267Z,3.15
2023-01-24T04:30:40.843Z,3.60
2023-01-24T04:33:55.606Z,3.73
2023-01-24T04:37:01.304Z,3.72
2023-01-24T04:40:04.611Z,3.58
2023-01-24T04:43:08.733Z,4.63
2023-01-24T04:46:11.988Z,3.53
2023-01-24T04:49:29.191Z,3.57
2023-01-24T04:52:35.143Z,3.50
2023-01-24T04:55:42.682Z,3.60
2023-01-24T04:58:46.321Z,3.80
2023-01-24T05:01:50.120Z,3.97
2023-01-24T05:05:10.235Z,3.63
2023-01-24T05:08:13.445Z,4.10
2023-01-24T05:11:16.331Z,3.67
2023-01-24T05:14:24.243Z,3.95
2023-01-24T05:17:27.099Z,3.97
2023-01-24T05:20:36.679Z,3.87
2023-01-24T05:23:45.354Z,3.85
2023-01-24T05:26:48.331Z,3.53
2023-01-24T05:29:56.068Z,3.75
2023-01-24T05:32:59.268Z,4.33
2023-01-24T05:36:04.865Z,4.37
2023-01-24T05:39:11.986Z,4.10
2023-01-24T05:42:15.071Z,4.13
2023-01-24T05:45:21.343Z,3.83
2023-01-24T05:48:24.476Z,3.80
2023-01-24T05:51:27.735Z,4.23
2023-01-24T05:54:33.876Z,4.30
2023-01-24T05:57:40.464Z,3.92
2023-01-24T06:00:54.064Z,4.13
2023-01-24T06:04:14.365Z,4.40
2023-01-24T06:07:17.167Z,3.80
2023-01-24T06:10:24.410Z,3.88
2023-01-24T06:13:39.095Z,3.95
2023-01-24T06:16:44.615Z,3.80
2023-01-24T06:19:50.268Z,4.30
2023-01-24T06:22:55.758Z,4.23
2023-01-24T06:25:59.604Z,3.72
2023-01-24T06:29:05.942Z,3.90
2023-01-24T06:32:21.979Z,3.65
2023-01-24T06:35:28.567Z,4.00
2023-01-24T06:38:31.714Z,4.00
2023-01-24T06:41:34.768Z,3.50
2023-01-24T06:44:37.825Z,3.72
2023-01-24T06:47:41.047Z,4.05
2023-01-24T06:50:44.747Z,3.87
2023-01-24T06:53:48.784Z,3.77
2023-01-24T06:56:51.574Z,3.80
2023-01-24T06:59:54.465Z,3.88
2023-01-24T07:02:59.848Z,3.67
2023-01-24T07:06:03.206Z,3.70
2023-01-24T07:09:06.585Z,3.57
2023-01-24T07:12:09.342Z,3.80
2023-01-24T07:15:12.196Z,3.55
2023-01-24T07:18:17.420Z,3.80
2023-01-24T07:21:20.711Z,3.73
2023-01-24T07:24:28.812Z,3.60
2023-01-24T07:27:32.113Z,3.35
2023-01-24T07:30:35.247Z,3.47
2023-01-24T07:33:38.199Z,4.07
2023-01-24T07:36:43.245Z,4.03
2023-01-24T07:39:46.024Z,3.90
2023-01-24T07:42:49.079Z,3.85
2023-01-24T07:45:53.175Z,3.47
2023-01-24T07:48:56.029Z,4.30
2023-01-24T07:51:59.091Z,3.73
2023-01-24T07:55:01.912Z,3.30
2023-01-24T07:58:05.029Z,4.00
2023-01-24T08:01:08.077Z,3.70
2023-01-24T08:04:12.132Z,3.78
2023-01-24T08:07:18.236Z,3.50
2023-01-24T08:10:23.032Z,4.00
2023-01-24T08:13:26.297Z,3.78
2023-01-24T08:16:29.094Z,3.58
2023-01-24T08:19:54.934Z,3.65
2023-01-24T08:22:58.777Z,3.83
2023-01-24T08:26:02.547Z,3.33
2023-01-24T08:29:30.991Z,3.45
2023-01-24T08:32:35.685Z,3.75
2023-01-24T08:35:39.614Z,3.53
2023-01-24T08:38:43.289Z,4.00
2023-01-24T08:41:47.143Z,4.10
2023-01-24T08:44:50.133Z,4.50
2023-01-24T08:47:54.264Z,4.00
2023-01-24T08:50:57.333Z,3.30
2023-01-24T08:54:00.458Z,3.73
2023-01-24T08:57:04.619Z,4.00
2023-01-24T09:00:08.680Z,3.58
2023-01-24T09:03:14.726Z,3.53
2023-01-24T09:06:17.604Z,3.40
2023-01-24T09:09:20.996Z,3.87
2023-01-24T09:12:24.073Z,3.50
2023-01-24T09:15:26.839Z,3.25
2023-01-24T09:18:29.645Z,3.35
2023-01-24T09:21:32.373Z,4.15
2023-01-24T09:24:35.229Z,3.77
2023-01-24T09:27:38.690Z,3.83
2023-01-24T09:30:41.780Z,4.10
2023-01-24T09:33:58.599Z,3.63
2023-01-24T09:37:02.653Z,3.85
2023-01-24T09:40:06.720Z,3.73
2023-01-24T09:43:30.916Z,4.17
2023-01-24T09:46:40.131Z,4.35
2023-01-24T09:49:59.697Z,4.30
2023-01-24T09:53:04.480Z,4.18
2023-01-24T09:56:16.406Z,4.23
2023-01-24T09:59:42.631Z,4.60
2023-01-24T10:02:45.954Z,4.10
2023-01-24T10:05:54.495Z,4.72
2023-01-24T10:09:03.617Z,4.65
2023-01-24T10:12:44.380Z,4.43
2023-01-24T10:15:51.341Z,4.73
2023-01-24T10:19:02.575Z,5.28
2023-01-24T10:22:15.237Z,4.80
2023-01-24T10:25:25.336Z,5.45
2023-01-24T10:28:39.799Z,5.40
2023-01-24T10:31:46.894Z,5.43
2023-01-24T10:35:00.458Z,6.25
2023-01-24T10:38:08.409Z,5.75
2023-01-24T10:41:16.675Z,5.05
2023-01-24T10:44:29.251Z,5.03
2023-01-24T10:47:58.021Z,4.83
2023-01-24T10:51:25.189Z,5.10
2023-01-24T10:54:29.398Z,4.65
2023-01-24T10:57:55.024Z,5.38
2023-01-24T11:01:00.194Z,5.10
2023-01-24T11:04:26.627Z,5.53
2023-01-24T11:07:33.748Z,5.43
2023-01-24T11:10:39.350Z,5.15
2023-01-24T11:13:42.739Z,5.43
2023-01-24T11:16:49.667Z,5.07
2023-01-24T11:20:01.496Z,4.60
2023-01-24T11:23:17.170Z,5.55
2023-01-24T11:26:29.507Z,5.07
2023-01-24T11:29:36.185Z,4.55
2023-01-24T11:32:59.409Z,4.53
2023-01-24T11:36:39.992Z,4.50
2023-01-24T11:39:48.294Z,4.80
2023-01-24T11:43:09.699Z,4.35
2023-01-24T11:46:36.324Z,4.75
2023-01-24T11:50:04.407Z,4.50
2023-01-24T11:53:11.953Z,4.97
2023-01-24T11:56:36.247Z,4.45
2023-01-24T11:59:59.987Z,4.38
2023-01-24T12:03:30.572Z,4.90
2023-01-24T12:06:54.431Z,4.60
2023-01-24T12:10:23.731Z,4.57
2023-01-24T12:13:49.307Z,4.80
2023-01-24T12:17:18.615Z,4.38
2023-01-24T12:21:06.803Z,5.00
2023-01-24T12:24:22.066Z,4.40
2023-01-24T12:27:28.040Z,4.50
2023-01-24T12:30:49.041Z,6.82
2023-01-24T12:34:04.856Z,7.70
2023-01-24T12:37:29.082Z,8.50
2023-01-24T12:40:45.038Z,5.90
2023-01-24T12:44:05.581Z,7.20
2023-01-24T12:47:53.057Z,6.97
2023-01-24T12:51:13.394Z,7.75
2023-01-24T12:54:27.212Z,10.35
2023-01-24T12:57:43.231Z,14.47
2023-01-24T13:00:51.923Z,6.80
2023-01-24T13:04:21.575Z,6.57
2023-01-24T13:07:27.090Z,6.03
2023-01-24T13:11:05.148Z,6.13
2023-01-24T13:14:25.263Z,5.37
2023-01-24T13:17:36.796Z,4.75
2023-01-24T13:20:39.721Z,5.18
2023-01-24T13:24:04.035Z,5.47
2023-01-24T13:27:13.075Z,4.90
2023-01-24T13:30:34.480Z,5.10
2023-01-24T13:33:50.660Z,5.10
2023-01-24T13:36:53.728Z,4.57
2023-01-24T13:40:19.445Z,4.68
2023-01-24T13:44:01.440Z,5.20
2023-01-24T13:47:12.456Z,4.10
2023-01-24T13:50:22.353Z,4.47
2023-01-24T13:54:17.699Z,4.07
2023-01-24T13:57:22.733Z,4.38
2023-01-24T14:00:31.811Z,4.20
2023-01-24T14:03:38.426Z,4.50
2023-01-24T14:06:46.313Z,4.88
2023-01-24T14:09:49.864Z,4.35
2023-01-24T14:12:55.540Z,4.85
2023-01-24T14:15:58.251Z,4.80
2023-01-24T14:19:24.723Z,4.10
2023-01-24T14:22:37.815Z,4.40
2023-01-24T14:25:49.182Z,4.97
2023-01-24T14:28:56.746Z,4.10
2023-01-24T14:32:02.635Z,4.57
2023-01-24T14:35:23.778Z,4.38
2023-01-24T14:38:27.013Z,4.53
2023-01-24T14:41:30.341Z,4.38
2023-01-24T14:44:57.403Z,4.05
2023-01-24T14:48:02.863Z,3.97
2023-01-24T14:51:08.281Z,4.32
2023-01-24T14:54:21.271Z,5.30
2023-01-24T14:57:30.897Z,4.00
2023-01-24T15:00:37.183Z,4.13
2023-01-24T15:03:49.812Z,4.63
2023-01-24T15:07:18.822Z,4.35
2023-01-24T15:10:35.789Z,4.40
2023-01-24T15:13:50.140Z,3.97
2023-01-24T15:16:55.901Z,3.85
2023-01-24T15:20:08.626Z,4.50
2023-01-24T15:23:21.301Z,4.88
2023-01-24T15:26:32.099Z,4.80
2023-01-24T15:29:43.276Z,4.70
2023-01-24T15:32:51.141Z,4.07
2023-01-24T15:35:54.422Z,3.97
2023-01-24T15:39:00.446Z,3.95
2023-01-24T15:42:45.546Z,4.57
2023-01-24T15:46:13.178Z,4.68
2023-01-24T15:49:33.155Z,4.70
2023-01-24T15:52:40.300Z,4.47
2023-01-24T15:55:43.232Z,4.30
2023-01-24T15:58:48.088Z,4.47
2023-01-24T16:01:51.387Z,4.85
2023-01-24T16:04:54.543Z,4.47
2023-01-24T16:07:57.542Z,4.43
2023-01-24T16:11:01.389Z,4.18
2023-01-24T16:14:06.588Z,4.20
2023-01-24T16:17:11.804Z,4.30
2023-01-24T16:20:20.253Z,4.30
2023-01-24T16:23:23.308Z,4.03
2023-01-24T16:26:26.684Z,4.07
2023-01-24T16:29:31.600Z,3.85
2023-01-24T16:32:34.599Z,3.78
2023-01-24T16:35:37.909Z,3.35
2023-01-24T16:38:45.158Z,3.90
2023-01-24T16:41:49.341Z,4.32
2023-01-24T16:45:00.519Z,4.55
2023-01-24T16:48:05.421Z,3.92
2023-01-24T16:51:14.401Z,4.43
2023-01-24T16:54:17.387Z,4.60
2023-01-24T16:57:22.883Z,4.55
2023-01-24T17:00:26.742Z,4.80
2023-01-24T17:03:30.656Z,4.43
2023-01-24T17:06:34.018Z,5.28
2023-01-24T17:09:38.933Z,4.50
2023-01-24T17:12:45.085Z,4.60
2023-01-24T17:15:49.552Z,4.68
2023-01-24T17:18:53.109Z,5.57
2023-01-24T17:21:59.724Z,4.90
2023-01-24T17:25:03.946Z,5.73
2023-01-24T17:28:07.925Z,4.53
2023-01-24T17:31:14.698Z,4.97
2023-01-24T17:34:18.416Z,5.40
2023-01-24T17:37:21.576Z,5.25
2023-01-24T17:40:25.569Z,6.33
2023-01-24T17:43:43.972Z,6.18
2023-01-24T17:46:54.786Z,5.30
2023-01-24T17:49:58.118Z,5.03
2023-01-24T17:53:02.310Z,5.97
2023-01-24T17:56:10.801Z,5.23
2023-01-24T17:59:16.499Z,5.45
2023-01-24T18:02:20.077Z,6.20
2023-01-24T18:05:27.723Z,5.65
2023-01-24T18:08:31.630Z,6.43
2023-01-24T18:11:37.501Z,5.67
2023-01-24T18:14:42.851Z,5.63
2023-01-24T18:17:53.481Z,5.75
2023-01-24T18:20:57.716Z,5.57
2023-01-24T18:24:04.703Z,5.45
2023-01-24T18:27:08.760Z,6.10
2023-01-24T18:30:16.925Z,5.85
2023-01-24T18:33:21.055Z,5.88
2023-01-24T18:36:25.154Z,5.30
2023-01-24T18:39:29.086Z,5.00
2023-01-24T18:42:33.436Z,5.63
2023-01-24T18:45:37.999Z,5.00
2023-01-24T18:48:44.875Z,5.10
2023-01-24T18:51:51.644Z,5.57
2023-01-24T18:54:59.816Z,5.00
2023-01-24T18:58:05.189Z,5.20
2023-01-24T19:01:20.730Z,5.40
2023-01-24T19:04:29.081Z,6.05
2023-01-24T19:07:38.674Z,5.70
2023-01-24T19:10:48.884Z,6.25
2023-01-24T19:13:54.286Z,5.80
2023-01-24T19:17:01.156Z,5.35
2023-01-24T19:23:19.648Z,5.32
2023-01-24T19:26:25.511Z,5.43
2023-01-24T19:29:31.982Z,5.93
2023-01-24T19:32:39.790Z,6.07
2023-01-24T19:35:44.437Z,6.28
2023-01-24T19:38:57.880Z,5.70
2023-01-24T19:42:02.467Z,5.32
2023-01-24T19:45:09.328Z,5.77
2023-01-24T19:48:14.960Z,5.20
2023-01-24T19:51:20.484Z,5.57
2023-01-24T19:54:26.576Z,5.43
2023-01-24T19:57:33.044Z,5.68
2023-01-24T20:00:38.772Z,5.13
2023-01-24T20:03:47.401Z,5.53
2023-01-24T20:06:55.061Z,5.43
2023-01-24T20:10:00.523Z,5.30
2023-01-24T20:13:04.165Z,5.97
2023-01-24T20:16:22.784Z,4.70
2023-01-24T20:19:29.259Z,5.68
2023-01-24T20:22:35.369Z,5.43
2023-01-24T20:25:42.485Z,5.38
2023-01-24T20:28:47.347Z,6.20
2023-01-24T20:31:51.720Z,4.83
2023-01-24T20:34:58.681Z,5.18
2023-01-24T20:38:05.051Z,5.85
2023-01-24T20:41:16.953Z,5.18
2023-01-24T20:44:27.049Z,5.28
2023-01-24T20:47:31.564Z,5.60
2023-01-24T20:50:35.415Z,5.38
2023-01-24T20:53:39.670Z,5.68
2023-01-24T20:56:47.730Z,5.82
2023-01-24T20:59:51.895Z,5.32
2023-01-24T21:02:58.162Z,5.03
2023-01-24T21:06:07.692Z,5.85
2023-01-24T21:09:12.414Z,5.82
2023-01-24T21:12:15.694Z,5.57
2023-01-24T21:15:19.906Z,5.40
2023-01-24T21:18:23.800Z,5.90
2023-01-24T21:21:35.498Z,5.32
2023-01-24T21:24:42.379Z,5.30
2023-01-24T21:27:51.263Z,6.68
2023-01-24T21:31:02.132Z,5.90
2023-01-24T21:34:05.762Z,5.57
2023-01-24T21:37:27.356Z,5.57
2023-01-24T21:40:54.761Z,5.97
2023-01-24T21:43:58.277Z,5.97
2023-01-24T21:47:02.676Z,5.50
2023-01-24T21:50:05.732Z,5.40
2023-01-24T21:53:29.130Z,5.95
2023-01-24T21:56:56.686Z,5.80
2023-01-24T22:00:00.919Z,5.72
2023-01-24T22:03:22.556Z,5.32
2023-01-24T22:06:25.410Z,5.50
2023-01-24T22:09:28.677Z,5.28
2023-01-24T22:12:35.172Z,5.70
2023-01-24T22:15:38.184Z,5.90
2023-01-24T22:18:41.177Z,5.72
2023-01-24T22:22:21.812Z,5.70
2023-01-24T22:25:41.648Z,5.55
2023-01-24T22:28:44.686Z,5.53
2023-01-24T22:31:47.851Z,5.70
2023-01-24T22:34:51.118Z,5.38
2023-01-24T22:37:57.428Z,5.43
2023-01-24T22:41:00.496Z,5.45
2023-01-24T22:44:03.277Z,6.03
2023-01-24T22:47:06.346Z,5.40
2023-01-24T22:50:10.430Z,5.70
2023-01-24T22:53:13.692Z,5.40
2023-01-24T22:56:16.394Z,5.40
2023-01-24T22:59:19.345Z,5.80
2023-01-24T23:02:22.380Z,5.55
2023-01-24T23:05:25.332Z,5.72
2023-01-24T23:08:28.176Z,5.50
2023-01-24T23:11:31.184Z,5.53
2023-01-24T23:14:52.692Z,5.97
2023-01-24T23:17:56.323Z,5.07
2023-01-24T23:21:21.741Z,5.82
2023-01-24T23:24:24.553Z,5.80
2023-01-24T23:27:36.657Z,5.50
2023-01-24T23:30:56.373Z,5.45
2023-01-24T23:34:20.879Z,6.30
2023-01-24T23:37:26.365Z,5.65
2023-01-24T23:40:29.385Z,5.87
2023-01-24T23:43:32.401Z,6.13
2023-01-24T23:46:35.338Z,5.90
2023-01-24T23:49:38.287Z,5.32
2023-01-24T23:52:41.138Z,5.95
2023-01-24T23:55:46.058Z,5.90
2023-01-24T23:58:48.973Z,6.05
